Hancock, Maryland
Current Conditions -  °F | °C
As of 12:53 PM on Thursday 23 Oct 2014 (Local Time) from KMRB Reporting Station
Scattered Clouds Scattered Clouds  
Wind Chill: 17°   Ceiling: Unl
Heat Index: 17°   Visibility: 10mi
Dew Point:   Wind: 21mph
Humidity: 46%   Direction: 310°NW
Pressure: 29.94"   Gusts: 29mph
Location:  39.7°N, 78.18°W
Report Text: KMRB 231653Z 31018G25KT 10SM SCT043 17/05 A2994 RMK AO2 PK WND 32026/1631 SLP139 T01670050
Loading
Personal Weather Stations






























Interactive Weather Map
Tropical Storm Tracking
New forecast layout! Learn more

10-Day Weather Forecast

Advertisements
Track Severe Weather on mobile